METAR Data
IDs: Format: Raw Decoded Include TAF

Data at: 1147 UTC 16 Oct 2018

METAR for:KIAH (Houston/Bush Intl, TX, US)
Text:KIAH 161053Z 32006KT 1/2SM BR OVC003 15/15 A3006 RMK AO2 SFC VIS 3 SLP179 TWR IN CLDS T01500150
Temperature: 15.0°C ( 59°F)
Dewpoint: 15.0°C ( 59°F) [RH = 100%]
Pressure (altimeter):30.06 inches Hg (1018.0 mb) [Sea level pressure: 1017.9 mb]
Winds:from the NW (320 degrees) at 7 MPH (6 knots; 3.1 m/s)
Visibility: 0.50 sm ( 0.80 km)
Ceiling:300 feet AGL
Clouds: overcast cloud deck at 300 feet AGL
Weather:BR (mist)

METAR for:KHOU (Houston/Hobby Arpt, TX, US)
Text:KHOU 161053Z 33007KT 1 1/2SM BR OVC003 16/15 A3004 RMK AO2 SLP176 T01560150
Temperature: 15.6°C ( 60°F)
Dewpoint: 15.0°C ( 59°F) [RH = 96%]
Pressure (altimeter):30.04 inches Hg (1017.4 mb) [Sea level pressure: 1017.6 mb]
Winds:from the NNW (330 degrees) at 8 MPH (7 knots; 3.6 m/s)
Visibility: 1.50 sm ( 2.41 km)
Ceiling:300 feet AGL
Clouds: overcast cloud deck at 300 feet AGL
Weather:BR (mist)

METAR for:KGLS (Galveston/Scholes In, TX, US)
Text:KGLS 161052Z 01014KT 6SM BR OVC004 21/21 A3001 RMK AO2 SLP161 T02060206
Temperature: 20.6°C ( 69°F)
Dewpoint: 20.6°C ( 69°F) [RH = 100%]
Pressure (altimeter):30.01 inches Hg (1016.3 mb) [Sea level pressure: 1016.1 mb]
Winds:from the N (10 degrees) at 16 MPH (14 knots; 7.2 m/s)
Visibility: 6 sm ( 10 km)
Ceiling:400 feet AGL
Clouds: overcast cloud deck at 400 feet AGL
Weather:BR (mist)

METAR for:KLVJ (Houston/Pearland Rgn, TX, US)
Text:KLVJ 161140Z AUTO 33005KT 3SM BR OVC003 16/16 A3005 RMK AO2 T01610161
Temperature: 16.1°C ( 61°F)
Dewpoint: 16.1°C ( 61°F) [RH = 100%]
Pressure (altimeter):30.05 inches Hg (1017.7 mb)
Winds:from the NNW (330 degrees) at 6 MPH (5 knots; 2.6 m/s)
Visibility: 3 sm ( 5 km)
Ceiling:300 feet AGL
Clouds: overcast cloud deck at 300 feet AGL
Weather:BR (mist)
QC Flag:automated observation with no human augmentation

METAR for:KSGR (Houston/Sugar Land R, TX, US)
Text:KSGR 161053Z AUTO 33010KT 2SM BR OVC004 13/12 A3005 RMK AO2 SLP179 T01330122
Temperature: 13.3°C ( 56°F)
Dewpoint: 12.2°C ( 54°F) [RH = 93%]
Pressure (altimeter):30.05 inches Hg (1017.7 mb) [Sea level pressure: 1017.9 mb]
Winds:from the NNW (330 degrees) at 12 MPH (10 knots; 5.1 m/s)
Visibility: 2.00 sm ( 3.22 km)
Ceiling:400 feet AGL
Clouds: overcast cloud deck at 400 feet AGL
Weather:BR (mist)
QC Flag:automated observation with no human augmentation

METAR for:KDWH (Houston/Hooks Mem, TX, US)
Text:KDWH 161115Z AUTO 35005KT 8SM OVC005 13/13 A3008 RMK AO2 T01280128
Temperature: 12.8°C ( 55°F)
Dewpoint: 12.8°C ( 55°F) [RH = 100%]
Pressure (altimeter):30.08 inches Hg (1018.7 mb)
Winds:from the N (350 degrees) at 6 MPH (5 knots; 2.6 m/s)
Visibility: 8 sm ( 13 km)
Ceiling:500 feet AGL
Clouds: overcast cloud deck at 500 feet AGL
QC Flag:automated observation with no human augmentation

METAR for:KCLL (College Station/East, TX, US)
Text:KCLL 161116Z AUTO 33009KT 7SM -RA FEW009 OVC015 10/10 A3013 RMK AO2 P0001 T01000100
Temperature: 10.0°C ( 50°F)
Dewpoint: 10.0°C ( 50°F) [RH = 100%]
Pressure (altimeter):30.13 inches Hg (1020.4 mb)
Winds:from the NNW (330 degrees) at 10 MPH (9 knots; 4.6 m/s)
Visibility: 7 sm ( 11 km)
Ceiling:1500 feet AGL
Clouds: few clouds at 900 feet AGL, overcast cloud deck at 1500 feet AGL
Weather:-RA (light rain)
QC Flag:automated observation with no human augmentation

METAR for:KUTS (Huntsville Muni, TX, US)
Text:KUTS 161053Z AUTO 35004KT 8SM -RA BKN004 OVC009 11/11 A3010 RMK AO2 RAB14 SLP192 P0004 T01060106 $
Temperature: 10.6°C ( 51°F)
Dewpoint: 10.6°C ( 51°F) [RH = 100%]
Pressure (altimeter):30.10 inches Hg (1019.4 mb) [Sea level pressure: 1019.2 mb]
Winds:from the N (350 degrees) at 5 MPH (4 knots; 2.1 m/s)
Visibility: 8 sm ( 13 km)
Ceiling:400 feet AGL
Clouds: broken clouds at 400 feet AGL, overcast cloud deck at 900 feet AGL
Weather:-RA (light rain)
QC Flag:automated observation with no human augmentation; SOME DATA ABOVE MAY BE INACCURATE!!!"$" is an indication the sensor requires maintenance.

METAR for:KCXO (Conroe/Executive Arp, TX, US)
Text:KCXO 161053Z 34006KT 10SM OVC005 13/13 A3008 RMK AO2 SLP185 T01330133
Temperature: 13.3°C ( 56°F)
Dewpoint: 13.3°C ( 56°F) [RH = 100%]
Pressure (altimeter):30.08 inches Hg (1018.7 mb) [Sea level pressure: 1018.5 mb]
Winds:from the NNW (340 degrees) at 7 MPH (6 knots; 3.1 m/s)
Visibility:10 or more sm (16+ km)
Ceiling:500 feet AGL
Clouds: overcast cloud deck at 500 feet AGL

METAR for:KLBX (Angleton/Texas Gulf, TX, US)
Text:KLBX 161144Z AUTO 33007KT 2 1/2SM BR OVC004 14/14 A3004 RMK AO2 T01440144
Temperature: 14.4°C ( 58°F)
Dewpoint: 14.4°C ( 58°F) [RH = 100%]
Pressure (altimeter):30.04 inches Hg (1017.4 mb)
Winds:from the NNW (330 degrees) at 8 MPH (7 knots; 3.6 m/s)
Visibility: 2.50 sm ( 4.02 km)
Ceiling:400 feet AGL
Clouds: overcast cloud deck at 400 feet AGL
Weather:BR (mist)
QC Flag:automated observation with no human augmentation

METAR for:KPSX (Palacios Muni, TX, US)
Text:KPSX 161053Z AUTO 33015G21KT 10SM OVC006 11/11 A3006 RMK AO2 RAB02E11 SLP178 P0000 T01110111
Temperature: 11.1°C ( 52°F)
Dewpoint: 11.1°C ( 52°F) [RH = 100%]
Pressure (altimeter):30.06 inches Hg (1018.0 mb) [Sea level pressure: 1017.8 mb]
Winds:from the NNW (330 degrees) at 17 MPH (15 knots; 7.7 m/s) gusting to 24 MPH (21 knots; 10.8 m/s)
Visibility:10 or more sm (16+ km)
Ceiling:600 feet AGL
Clouds: overcast cloud deck at 600 feet AGL
QC Flag:automated observation with no human augmentation